Mc Cammon, Idaho
Current Conditions -  °F | °C
As of 7:53 AM on Monday 24 Nov 2014 (Local Time) from KPIH Reporting Station
Clear Clear  
Wind Chill: 17°   Ceiling: Unl
Heat Index: 29°   Visibility: 10mi
Dew Point: 25°   Wind: 16mph
Humidity: 85%   Direction: 220°SW
Pressure: 30.26"   Gusts: NA
Location:  42.6336°N, 112.1758°W
Report Text: KPIH 241453Z 22014KT 10SM CLR M02/M04 A3026 RMK AO2 SLP271 T10171039 53028
Loading
Personal Weather Stations






























Interactive Weather Map New forecast layout! Learn more

10-Day Weather Forecast

Advertisements
Track Severe Weather on mobile